Time;durP1;ratioP1;P1;durP2;ratioP2;P2;SDS_P1;SDS_P2;PMS_P1;PMS_P2;Temp;Humidity;BMP_temperature;BMP_pressure;BME280_temperature;BME280_humidity;BME280_pressure;Samples;Min_cycle;Max_cycle;Signal;HPM_P1;HPM_P2
2022/09/24 00:01:08;;;;;;;5.95;4.25;;;;;;;15.16;46.49;99997.41;5110303;28;20371;-42
2022/09/24 00:03:34;;;;;;;8.38;4.13;;;;;;;15.21;46.28;100002.91;5109763;28;20380;-42
2022/09/24 00:06:03;;;;;;;5.88;4.13;;;;;;;15.01;46.49;99994.31;5110275;28;20537;-42
2022/09/24 00:08:29;;;;;;;4.70;4.03;;;;;;;15.05;45.87;99990.13;5110398;28;20020;-42
2022/09/24 00:10:56;;;;;;;5.65;4.07;;;;;;;14.97;46.09;99995.81;5110290;28;20031;-44
2022/09/24 00:13:22;;;;;;;5.85;4.07;;;;;;;14.91;46.46;99985.97;5110297;28;20019;-42
2022/09/24 00:15:49;;;;;;;6.07;4.10;;;;;;;14.94;46.63;99996.25;5110375;28;20053;-43
2022/09/24 00:18:17;;;;;;;4.60;3.63;;;;;;;14.93;46.19;100000.00;5110138;28;20019;-42
2022/09/24 00:20:43;;;;;;;4.07;3.67;;;;;;;14.92;45.99;99995.66;5109997;28;20390;-42
2022/09/24 00:23:10;;;;;;;4.15;3.70;;;;;;;14.90;46.56;99989.72;5110202;28;20069;-42
2022/09/24 00:28:31;;;;;;;4.93;3.90;;;;;;;14.77;46.32;99986.16;5110353;28;20128;-41
2022/09/24 00:30:58;;;;;;;5.53;3.88;;;;;;;14.77;46.47;99991.50;5110329;28;20019;-41
2022/09/24 00:33:31;;;;;;;4.45;3.72;;;;;;;14.54;46.74;99986.00;5109841;28;20102;-41
2022/09/24 00:36:03;;;;;;;4.47;3.60;;;;;;;14.61;46.35;99976.06;5110248;28;20023;-41
2022/09/24 00:38:29;;;;;;;4.32;3.53;;;;;;;14.67;46.84;99980.53;5109889;28;20028;-41
2022/09/24 00:40:55;;;;;;;5.85;3.90;;;;;;;14.74;47.19;99983.94;5109997;28;20039;-41
2022/09/24 00:43:27;;;;;;;5.60;3.90;;;;;;;14.76;46.11;99981.84;5109729;28;20129;-42
2022/09/24 00:46:04;;;;;;;5.45;3.53;;;;;;;14.66;46.65;99979.72;5109842;28;20023;-42
2022/09/24 00:48:32;;;;;;;4.88;3.65;;;;;;;14.80;46.89;99988.41;5110075;28;20043;-42
2022/09/24 00:50:59;;;;;;;4.57;3.40;;;;;;;14.54;46.86;99983.31;5110200;28;20020;-42
2022/09/24 00:53:30;;;;;;;6.20;4.00;;;;;;;14.33;46.93;99974.69;5109638;28;20417;-41
2022/09/24 00:55:56;;;;;;;4.57;3.60;;;;;;;14.43;47.20;99976.84;5109502;28;20102;-41
2022/09/24 00:58:22;;;;;;;7.43;3.60;;;;;;;14.39;46.94;99971.13;5109255;28;20460;-42
2022/09/24 01:00:50;;;;;;;5.28;3.70;;;;;;;14.20;47.41;99978.34;5109397;28;20031;-41
2022/09/24 01:03:22;;;;;;;4.22;3.60;;;;;;;14.10;47.80;99977.19;5107886;28;20031;-41
2022/09/24 01:05:48;;;;;;;4.80;3.60;;;;;;;14.14;47.97;99975.72;5109299;28;20030;-42
2022/09/24 01:08:16;;;;;;;5.05;3.50;;;;;;;13.96;48.94;99973.84;5109251;28;20015;-41
2022/09/24 01:10:47;;;;;;;4.53;3.67;;;;;;;14.04;48.81;99978.91;5109582;28;20023;-42
2022/09/24 01:13:21;;;;;;;5.30;3.75;;;;;;;14.20;47.77;99981.00;5109502;28;20119;-42
2022/09/24 01:16:04;;;;;;;4.22;3.83;;;;;;;14.14;48.19;99986.41;5109202;28;20405;-43
2022/09/24 01:18:39;;;;;;;4.70;3.80;;;;;;;14.06;48.54;99991.00;5108856;28;20431;-43
2022/09/24 01:21:20;;;;;;;6.15;3.90;;;;;;;14.12;48.42;99991.19;5109277;28;20028;-43
2022/09/24 01:24:01;;;;;;;5.38;3.90;;;;;;;14.14;47.97;99991.78;5109038;28;20472;-43
2022/09/24 01:26:32;;;;;;;;;;;;;;;14.32;48.25;99989.13;5109862;28;20084;-43
2022/09/24 01:29:27;;;;;;;5.65;3.60;;;;;;;14.15;48.95;99991.56;5109387;28;19915;-43
2022/09/24 01:32:13;;;;;;;4.43;3.67;;;;;;;13.98;48.74;99990.50;5109297;28;20590;-43
2022/09/24 01:34:44;;;;;;;4.80;3.95;;;;;;;13.97;49.00;99997.66;5112932;28;20049;-43
2022/09/24 01:37:13;;;;;;;4.75;3.80;;;;;;;13.81;49.15;99992.91;5113686;28;20020;-44
2022/09/24 01:39:42;;;;;;;5.03;3.95;;;;;;;13.85;49.04;99988.75;5114036;28;20035;-43
2022/09/24 01:42:09;;;;;;;4.70;3.70;;;;;;;13.89;49.14;99997.97;5113641;28;20035;-43
2022/09/24 01:44:36;;;;;;;5.95;3.53;;;;;;;13.96;48.66;99985.34;5114195;28;20132;-43
2022/09/24 01:47:05;;;;;;;4.75;3.90;;;;;;;14.11;48.90;99995.72;5113581;28;20523;-42
2022/09/24 01:49:31;;;;;;;7.32;3.63;;;;;;;14.08;48.36;99994.28;5113516;28;20031;-42
2022/09/24 01:52:00;;;;;;;4.22;3.80;;;;;;;13.89;48.41;99998.78;5112953;28;20039;-42
2022/09/24 01:54:33;;;;;;;4.55;3.33;;;;;;;13.89;48.63;99997.97;5113299;28;20019;-42
2022/09/24 01:57:06;;;;;;;5.18;3.33;;;;;;;13.98;48.55;99998.50;5113050;28;20027;-43
2022/09/24 01:59:47;;;;;;;8.80;3.83;;;;;;;14.01;48.65;100004.25;5113618;28;20024;-43
2022/09/24 02:02:27;;;;;;;8.63;3.80;;;;;;;14.00;49.25;100002.59;5113557;27;20080;-42
2022/09/24 02:04:58;;;;;;;6.07;3.47;;;;;;;13.79;49.49;99992.28;5113261;28;20027;-43
2022/09/24 02:07:35;;;;;;;4.78;3.53;;;;;;;13.21;49.99;99991.44;5113837;28;20020;-43
2022/09/24 02:10:00;;;;;;;3.85;3.38;;;;;;;13.43;49.90;100004.47;5113362;28;20147;-42
2022/09/24 02:12:40;;;;;;;5.70;3.92;;;;;;;13.57;49.79;100006.00;5113455;28;20045;-42
2022/09/24 02:15:19;;;;;;;5.20;3.72;;;;;;;13.67;49.33;100016.25;5113299;27;20015;-43
2022/09/24 02:17:47;;;;;;;5.72;3.55;;;;;;;13.59;49.84;100008.47;5113091;28;20060;-44
2022/09/24 02:20:18;;;;;;;4.32;3.67;;;;;;;13.67;49.69;100013.59;5112762;28;20078;-43
2022/09/24 02:22:46;;;;;;;3.92;3.45;;;;;;;13.67;49.47;100010.91;5113000;28;20020;-43
2022/09/24 02:25:17;;;;;;;5.03;3.90;;;;;;;13.62;49.83;100018.75;5112884;28;20019;-43
2022/09/24 02:27:42;;;;;;;6.18;3.70;;;;;;;13.55;49.42;100024.13;5112692;28;20066;-43
2022/09/24 02:30:09;;;;;;;4.30;3.80;;;;;;;13.43;49.86;100023.19;5112666;28;20044;-42
2022/09/24 02:32:38;;;;;;;5.63;3.55;;;;;;;13.36;49.77;100025.91;5112895;28;20027;-42
2022/09/24 02:35:07;;;;;;;5.00;4.03;;;;;;;13.45;49.04;100023.78;5112151;28;20011;-42
2022/09/24 02:37:38;;;;;;;7.07;4.00;;;;;;;13.52;49.30;100027.25;5112161;28;20020;-43
2022/09/24 02:40:06;;;;;;;5.60;4.20;;;;;;;13.47;49.75;100011.84;5112763;28;20081;-42
2022/09/24 02:42:31;;;;;;;6.63;3.85;;;;;;;13.53;49.02;100022.72;5112112;28;20076;-42
2022/09/24 02:44:59;;;;;;;4.93;3.75;;;;;;;13.57;48.87;100014.03;5112024;28;20027;-42
2022/09/24 02:47:26;;;;;;;5.25;3.90;;;;;;;13.26;49.67;100017.50;5112586;28;20047;-42
2022/09/24 02:49:51;;;;;;;4.25;3.75;;;;;;;13.22;50.01;100019.78;5112210;28;20028;-42
2022/09/24 02:52:17;;;;;;;5.22;3.75;;;;;;;13.32;49.49;100016.66;5112497;28;20059;-42
2022/09/24 02:54:44;;;;;;;5.88;4.07;;;;;;;13.42;49.41;100027.72;5112640;28;20099;-42
2022/09/24 02:57:09;;;;;;;5.15;3.90;;;;;;;13.46;49.07;100026.25;5112042;28;20023;-42
2022/09/24 02:59:35;;;;;;;4.88;4.20;;;;;;;13.37;49.87;100027.53;5112092;28;20336;-42
2022/09/24 03:02:01;;;;;;;6.32;3.80;;;;;;;13.15;49.57;100036.88;5112031;28;20027;-43
2022/09/24 03:04:28;;;;;;;5.45;3.83;;;;;;;13.02;49.81;100037.75;5111988;28;20057;-42
2022/09/24 03:06:53;;;;;;;6.00;3.92;;;;;;;12.47;50.50;100036.31;5112349;28;20023;-42
2022/09/24 03:09:19;;;;;;;5.82;3.70;;;;;;;12.48;51.13;100037.94;5112081;28;20126;-43
2022/09/24 03:11:46;;;;;;;5.88;4.00;;;;;;;12.16;51.35;100050.28;5112198;28;20395;-42
2022/09/24 03:14:11;;;;;;;5.82;3.97;;;;;;;12.05;51.71;100046.41;5112092;28;20116;-44
2022/09/24 03:16:37;;;;;;;5.65;3.70;;;;;;;12.44;52.02;100052.72;5111712;28;20488;-42
2022/09/24 03:19:02;;;;;;;5.95;3.65;;;;;;;12.63;50.35;100050.22;5111646;28;20048;-43
2022/09/24 03:21:28;;;;;;;4.80;3.80;;;;;;;12.77;50.65;100048.34;5111716;28;20102;-42
2022/09/24 03:23:53;;;;;;;6.25;3.67;;;;;;;12.73;50.36;100047.94;5111510;28;20027;-41
2022/09/24 03:26:19;;;;;;;4.55;3.72;;;;;;;12.86;50.33;100053.22;5111775;28;20026;-41
2022/09/24 03:28:45;;;;;;;4.70;3.85;;;;;;;13.00;49.83;100051.31;5112163;28;20024;-41
2022/09/24 03:31:13;;;;;;;6.53;3.83;;;;;;;13.00;49.79;100054.00;5112158;28;20030;-41
2022/09/24 03:33:49;;;;;;;4.82;3.63;;;;;;;13.10;49.81;100051.72;5111672;28;20055;-42
2022/09/24 03:36:21;;;;;;;5.97;4.20;;;;;;;13.14;49.83;100052.09;5111669;28;20077;-42
2022/09/24 03:38:48;;;;;;;5.68;4.10;;;;;;;13.13;49.18;100052.31;5111503;28;20023;-42
2022/09/24 03:41:14;;;;;;;5.25;3.90;;;;;;;13.21;49.69;100060.06;5111304;28;20020;-43
2022/09/24 03:43:40;;;;;;;6.93;3.85;;;;;;;13.29;49.39;100062.53;5110151;28;20088;-42
2022/09/24 03:46:06;;;;;;;4.97;4.13;;;;;;;13.28;49.91;100064.34;5111213;27;20407;-42
2022/09/24 03:48:34;;;;;;;6.03;4.10;;;;;;;13.18;49.94;100060.53;5111203;28;20026;-42
2022/09/24 03:51:11;;;;;;;7.05;3.97;;;;;;;13.26;49.68;100070.94;5111315;28;20446;-42
2022/09/24 03:53:37;;;;;;;7.68;3.85;;;;;;;13.23;49.47;100084.72;5111372;28;20408;-42
2022/09/24 03:56:05;;;;;;;4.80;3.85;;;;;;;13.23;50.00;100079.38;5110899;28;20019;-42
2022/09/24 03:58:34;;;;;;;6.22;4.20;;;;;;;13.26;49.94;100084.31;5111354;28;20606;-43
2022/09/24 04:01:00;;;;;;;5.93;3.80;;;;;;;13.24;50.13;100087.19;5111221;28;20030;-43
2022/09/24 04:03:26;;;;;;;6.80;4.00;;;;;;;13.28;50.25;100088.41;5111512;28;20023;-43
2022/09/24 04:05:51;;;;;;;6.57;3.90;;;;;;;13.33;49.85;100093.16;5111450;28;20161;-42
2022/09/24 04:08:18;;;;;;;6.88;3.90;;;;;;;13.39;50.17;100094.16;5111086;28;20086;-42
2022/09/24 04:10:45;;;;;;;5.88;3.85;;;;;;;13.47;49.48;100104.59;5111136;28;20035;-42
2022/09/24 04:13:11;;;;;;;6.75;3.63;;;;;;;13.15;50.42;100101.81;5110729;28;20392;-42
2022/09/24 04:15:37;;;;;;;5.25;3.60;;;;;;;13.16;49.68;100097.31;5110624;28;20071;-42
2022/09/24 04:18:02;;;;;;;5.95;3.70;;;;;;;12.79;51.05;100102.34;5111072;28;20057;-43
2022/09/24 04:20:28;;;;;;;4.70;3.90;;;;;;;13.03;50.22;100098.19;5110944;28;20208;-41
2022/09/24 04:22:56;;;;;;;4.72;3.88;;;;;;;13.37;50.04;100099.72;5111197;28;20023;-41
2022/09/24 04:25:22;;;;;;;5.43;3.97;;;;;;;13.54;49.12;100110.75;5110733;28;20459;-42
2022/09/24 04:27:56;;;;;;;4.13;3.40;;;;;;;13.63;48.82;100105.94;5111007;28;20106;-41
2022/09/24 04:30:24;;;;;;;6.05;3.60;;;;;;;13.67;48.90;100110.66;5110688;28;20027;-42
2022/09/24 04:32:50;;;;;;;8.73;5.85;;;;;;;13.83;48.50;100119.22;5110162;28;20038;-43
2022/09/24 04:35:18;;;;;;;14.40;9.90;;;;;;;14.05;48.36;100122.34;5110037;28;20416;-43
2022/09/24 04:37:44;;;;;;;43.13;25.88;;;;;;;14.19;48.02;100126.56;5110414;28;20020;-42
2022/09/24 04:40:11;;;;;;;10.85;6.70;;;;;;;14.43;47.29;100124.94;5110032;28;20016;-42
2022/09/24 04:42:38;;;;;;;9.30;5.25;;;;;;;14.64;46.72;100128.25;5110153;28;20024;-41
2022/09/24 04:45:06;;;;;;;5.90;4.00;;;;;;;15.05;46.43;100124.16;5110523;28;20102;-42
2022/09/24 04:47:32;;;;;;;5.82;3.92;;;;;;;15.30;44.56;100120.56;5109758;28;20447;-44
2022/09/24 04:49:59;;;;;;;8.02;4.00;;;;;;;15.56;43.96;100120.22;5109184;28;20471;-43
2022/09/24 04:52:28;;;;;;;6.65;3.90;;;;;;;15.73;43.65;100123.09;5109599;28;20072;-41
2022/09/24 04:54:54;;;;;;;4.28;3.60;;;;;;;15.99;43.31;100121.91;5109605;28;20023;-42
2022/09/24 04:57:21;;;;;;;7.95;3.53;;;;;;;16.36;42.36;100129.78;5106770;28;20483;-42
2022/09/24 04:59:47;;;;;;;7.32;3.97;;;;;;;16.63;43.66;100136.56;5094011;28;20031;-42
2022/09/24 05:02:12;;;;;;;7.18;4.22;;;;;;;17.07;41.63;100129.78;5105309;28;20023;-42
2022/09/24 05:04:38;;;;;;;7.13;4.10;;;;;;;17.66;40.46;100120.72;5109789;28;20031;-43
2022/09/24 05:07:04;;;;;;;8.63;4.07;;;;;;;17.53;41.37;100119.94;5109837;28;20016;-44
2022/09/24 05:09:33;;;;;;;7.50;3.55;;;;;;;18.04;40.45;100136.22;5112918;28;20047;-44
2022/09/24 05:11:58;;;;;;;5.53;3.97;;;;;;;18.39;39.12;100131.66;5113383;28;20019;-42
2022/09/24 05:14:24;;;;;;;5.43;4.00;;;;;;;18.41;38.60;100141.16;5113407;28;20052;-44
2022/09/24 05:16:50;;;;;;;11.02;4.05;;;;;;;18.64;38.45;100133.91;5113151;27;20110;-41
2022/09/24 05:19:16;;;;;;;10.25;4.10;;;;;;;19.01;37.97;100134.22;5113625;28;20126;-44
2022/09/24 05:21:41;;;;;;;6.50;4.18;;;;;;;19.47;37.29;100145.56;5113677;28;20486;-43
2022/09/24 05:24:07;;;;;;;8.07;3.90;;;;;;;20.00;36.63;100135.06;5106498;28;20072;-43
2022/09/24 05:29:17;;;;;;;9.00;3.80;;;;;;;20.83;35.73;100136.53;5113748;28;20027;-42
2022/09/24 05:31:43;;;;;;;6.05;3.83;;;;;;;21.06;35.43;100124.47;5113880;28;20016;-42
2022/09/24 05:34:08;;;;;;;13.15;8.57;;;;;;;21.27;34.96;100128.88;5113935;28;20384;-41
2022/09/24 05:36:34;;;;;;;17.98;13.30;;;;;;;21.75;33.65;100128.75;5113330;28;20087;-41
2022/09/24 05:39:00;;;;;;;6.38;3.80;;;;;;;21.86;34.12;100130.41;5113497;28;20060;-42
2022/09/24 05:41:25;;;;;;;12.52;6.43;;;;;;;22.15;31.64;100123.66;5110369;28;20020;-41
2022/09/24 05:43:51;;;;;;;9.50;7.75;;;;;;;22.27;31.17;100134.25;5102047;28;20166;-43
2022/09/24 05:46:17;;;;;;;5.95;4.20;;;;;;;22.54;35.48;100140.19;5092627;28;20095;-41
2022/09/24 05:48:42;;;;;;;8.90;4.57;;;;;;;22.82;30.95;100140.69;5092104;28;20031;-42
2022/09/24 05:51:07;;;;;;;7.65;4.05;;;;;;;23.44;30.30;100138.59;5091931;28;20028;-43
2022/09/24 05:53:33;;;;;;;9.80;6.00;;;;;;;23.85;29.90;100145.69;5092234;28;20028;-43
2022/09/24 05:55:59;;;;;;;7.80;4.00;;;;;;;24.16;29.35;100136.22;5095094;27;20344;-43
2022/09/24 05:58:25;;;;;;;5.80;3.80;;;;;;;24.71;28.25;100146.09;5107162;28;20054;-42
2022/09/24 06:00:50;;;;;;;7.22;4.15;;;;;;;24.84;28.26;100145.41;5112137;28;20028;-41
2022/09/24 06:03:18;;;;;;;7.97;3.70;;;;;;;25.18;27.60;100152.63;5112750;28;20034;-43
2022/09/24 06:05:48;;;;;;;4.85;3.40;;;;;;;25.18;27.24;100158.88;5112651;28;20046;-41
2022/09/24 06:08:18;;;;;;;5.68;3.75;;;;;;;25.27;27.86;100159.09;5112576;28;20019;-42
2022/09/24 06:10:46;;;;;;;4.45;2.90;;;;;;;25.59;27.14;100145.88;5112266;28;20042;-43
2022/09/24 06:13:13;;;;;;;7.25;2.92;;;;;;;25.84;27.82;100147.44;5112570;28;20024;-42
2022/09/24 06:15:41;;;;;;;3.28;2.42;;;;;;;26.20;25.89;100144.16;5112000;28;20095;-42
2022/09/24 06:18:08;;;;;;;5.17;2.80;;;;;;;26.56;25.25;100149.00;5112773;28;20459;-41
2022/09/24 06:20:34;;;;;;;6.55;3.00;;;;;;;26.72;25.27;100151.19;5113066;28;20023;-43
2022/09/24 06:22:59;;;;;;;7.60;5.70;;;;;;;26.83;24.93;100140.88;5113470;28;20024;-44
2022/09/24 06:25:26;;;;;;;3.92;3.13;;;;;;;26.81;25.01;100147.75;5113924;28;20023;-42
2022/09/24 06:28:01;;;;;;;4.03;2.80;;;;;;;26.19;25.63;100140.63;5112968;28;20023;-43
2022/09/24 06:30:33;;;;;;;11.27;6.13;;;;;;;26.28;25.71;100151.66;5114520;28;20060;-36
2022/09/24 06:33:07;;;;;;;17.15;15.02;;;;;;;26.84;25.19;100144.41;5113951;28;20483;-35
2022/09/24 06:35:37;;;;;;;4.88;3.45;;;;;;;27.37;24.63;100156.75;5113977;28;20027;-36
2022/09/24 06:38:04;;;;;;;5.10;2.60;;;;;;;26.24;25.03;100158.84;5113643;28;20024;-36
2022/09/24 06:40:29;;;;;;;2.75;2.47;;;;;;;26.27;24.84;100163.69;5113627;28;20023;-36
2022/09/24 06:42:55;;;;;;;4.88;2.20;;;;;;;26.90;24.32;100154.13;5112088;28;20394;-36
2022/09/24 06:45:21;;;;;;;3.25;2.50;;;;;;;27.29;24.05;100159.09;5111687;28;20034;-36
2022/09/24 06:47:54;;;;;;;5.65;2.13;;;;;;;26.42;24.49;100155.22;5111814;28;20596;-37
2022/09/24 06:50:20;;;;;;;6.78;3.35;;;;;;;26.99;24.62;100162.41;5112854;28;20087;-36
2022/09/24 06:52:46;;;;;;;4.50;2.30;;;;;;;26.81;23.70;100158.69;5112605;28;20115;-37
2022/09/24 06:55:11;;;;;;;2.78;2.40;;;;;;;26.45;24.40;100160.09;5112255;28;20447;-36
2022/09/24 06:57:37;;;;;;;2.75;2.30;;;;;;;26.55;23.92;100163.75;5112464;28;20467;-36
2022/09/24 07:00:03;;;;;;;7.93;5.40;;;;;;;26.67;24.02;100162.22;5112630;28;20028;-36
2022/09/24 07:02:30;;;;;;;2.60;2.25;;;;;;;26.96;23.52;100163.00;5112822;28;20111;-36
2022/09/24 07:04:55;;;;;;;3.80;2.30;;;;;;;27.38;23.20;100166.56;5112476;28;20055;-36
2022/09/24 07:07:32;;;;;;;2.17;1.98;;;;;;;28.10;22.33;100170.44;5112403;28;20532;-36
2022/09/24 07:10:03;;;;;;;2.90;2.30;;;;;;;28.42;22.17;100175.66;5112057;28;20080;-36
2022/09/24 07:12:30;;;;;;;5.32;2.50;;;;;;;28.48;21.59;100168.13;5112386;28;20032;-37
2022/09/24 07:14:56;;;;;;;3.17;2.05;;;;;;;28.87;21.15;100169.31;5112267;28;20110;-36
2022/09/24 07:17:23;;;;;;;2.33;2.00;;;;;;;28.90;21.38;100162.41;5111872;28;20027;-36
2022/09/24 07:19:49;;;;;;;2.28;2.03;;;;;;;27.77;21.87;100157.78;5111970;28;20054;-36
2022/09/24 07:22:14;;;;;;;4.97;2.10;;;;;;;28.34;21.49;100162.72;5112236;28;20016;-36
2022/09/24 07:24:40;;;;;;;3.28;2.20;;;;;;;28.90;21.42;100160.50;5112131;28;20020;-36
2022/09/24 07:27:07;;;;;;;4.25;2.20;;;;;;;29.04;21.02;100166.66;5112059;28;20052;-37
2022/09/24 07:29:33;;;;;;;2.40;2.05;;;;;;;28.51;21.65;100164.78;5111987;28;20462;-37
2022/09/24 07:31:59;;;;;;;3.25;2.10;;;;;;;28.62;21.33;100166.16;5111402;28;20020;-37
2022/09/24 07:34:24;;;;;;;2.97;2.20;;;;;;;27.82;22.45;100167.81;5111436;28;20391;-37
2022/09/24 07:36:49;;;;;;;2.88;2.33;;;;;;;27.59;22.74;100165.03;5112007;28;20027;-35
2022/09/24 07:39:15;;;;;;;3.38;2.40;;;;;;;28.02;22.51;100156.41;5111826;28;20031;-35
2022/09/24 07:41:41;;;;;;;5.13;2.30;;;;;;;28.86;21.40;100156.75;5112128;28;20503;-35
2022/09/24 07:44:07;;;;;;;5.32;2.30;;;;;;;28.93;21.24;100148.09;5111782;28;20111;-35
2022/09/24 07:46:33;;;;;;;4.50;2.40;;;;;;;29.13;21.13;100147.53;5111889;28;20051;-35
2022/09/24 07:48:59;;;;;;;6.28;4.75;;;;;;;28.25;21.80;100150.91;5111975;28;20031;-37
2022/09/24 07:51:26;;;;;;;2.90;2.50;;;;;;;28.91;21.04;100151.13;5111866;28;20035;-35
2022/09/24 07:53:52;;;;;;;8.38;2.28;;;;;;;28.50;21.71;100148.66;5111897;28;20077;-36
2022/09/24 07:56:18;;;;;;;4.07;2.20;;;;;;;28.07;21.50;100142.59;5111435;28;20023;-36
2022/09/24 07:58:44;;;;;;;5.43;2.35;;;;;;;27.92;22.17;100148.44;5111605;28;20359;-36
2022/09/24 08:01:09;;;;;;;6.47;3.67;;;;;;;28.17;21.53;100138.81;5111651;28;20031;-36
2022/09/24 08:03:35;;;;;;;4.72;2.40;;;;;;;27.99;21.81;100132.41;5111447;28;20020;-36
2022/09/24 08:06:03;;;;;;;3.03;2.17;;;;;;;28.58;21.46;100142.47;5111668;28;20023;-36
2022/09/24 08:08:28;;;;;;;2.80;2.13;;;;;;;28.15;21.81;100143.78;5111659;28;20054;-37
2022/09/24 08:10:54;;;;;;;3.95;2.42;;;;;;;28.45;21.37;100128.50;5111299;28;20107;-37
2022/09/24 08:13:19;;;;;;;3.42;2.33;;;;;;;28.52;21.21;100130.84;5111776;28;20471;-35
2022/09/24 08:15:44;;;;;;;2.10;1.90;;;;;;;27.55;21.51;100144.06;5111145;28;20607;-37
2022/09/24 08:18:10;;;;;;;2.60;2.10;;;;;;;27.69;22.17;100134.72;5111707;28;20381;-37
2022/09/24 08:20:37;;;;;;;6.65;2.13;;;;;;;27.37;21.56;100138.44;5111346;28;20499;-37
2022/09/24 08:23:05;;;;;;;3.97;2.20;;;;;;;27.78;21.75;100131.25;5110969;28;20080;-37
2022/09/24 08:25:31;;;;;;;3.35;1.92;;;;;;;27.97;21.43;100129.19;5111057;28;20498;-36
2022/09/24 08:28:07;;;;;;;7.80;3.20;;;;;;;28.22;21.91;100107.78;5111462;28;20102;-36
2022/09/24 08:30:33;;;;;;;3.15;2.30;;;;;;;28.45;20.58;100125.78;5111574;28;20030;-38
2022/09/24 08:32:59;;;;;;;6.07;3.65;;;;;;;28.98;20.54;100112.34;5111142;28;20102;-36
2022/09/24 08:35:24;;;;;;;2.80;1.95;;;;;;;29.22;20.09;100117.41;5110967;28;20170;-37
2022/09/24 08:37:53;;;;;;;1.73;1.63;;;;;;;29.37;19.30;100124.34;5110667;28;20015;-37
2022/09/24 08:40:25;;;;;;;3.05;1.98;;;;;;;28.75;19.96;100109.69;5111260;28;20020;-37
2022/09/24 08:43:38;;;;;;;3.50;2.10;;;;;;;28.88;19.16;100112.63;5113557;28;20051;-37
2022/09/24 08:48:58;;;;;;;4.85;2.38;;;;;;;28.91;19.30;100096.34;5115408;28;20096;-36
2022/09/24 08:51:25;;;;;;;3.42;2.60;;;;;;;28.68;19.49;100101.13;5115433;28;20031;-37
2022/09/24 08:54:00;;;;;;;4.10;1.92;;;;;;;28.72;19.16;100104.84;5115134;27;20012;-37
2022/09/24 08:56:33;;;;;;;3.00;2.10;;;;;;;28.44;18.86;100109.66;5115244;27;20451;-36
2022/09/24 08:59:08;;;;;;;2.53;1.83;;;;;;;28.51;19.52;100106.50;5115115;28;20051;-36
2022/09/24 09:01:33;;;;;;;4.03;1.95;;;;;;;28.26;20.17;100097.84;5114986;28;20092;-36
2022/09/24 09:04:24;;;;;;;3.75;2.00;;;;;;;28.44;20.63;100105.03;5114624;28;20047;-36
2022/09/24 09:07:24;;;;;;;2.42;2.00;;;;;;;27.98;20.04;100099.91;5114867;28;20039;-36
2022/09/24 09:10:08;;;;;;;2.05;1.85;;;;;;;27.88;19.79;100095.47;5070759;28;20048;-36
2022/09/24 09:12:55;;;;;;;11.75;8.23;;;;;;;28.12;18.83;100089.72;5114503;28;20424;-36
2022/09/24 09:15:26;;;;;;;2.67;1.90;;;;;;;27.62;18.76;100090.59;5114082;28;20072;-36
2022/09/24 09:18:13;;;;;;;4.18;2.80;;;;;;;27.49;18.60;100077.78;5114775;28;20023;-36
2022/09/24 09:20:44;;;;;;;4.57;3.63;;;;;;;26.72;19.64;100091.13;5114795;28;20084;-36
2022/09/24 09:23:17;;;;;;;2.10;1.90;;;;;;;27.27;19.69;100093.03;5114881;28;20019;-36
2022/09/24 09:25:55;;;;;;;1.90;1.70;;;;;;;26.91;19.10;100079.31;5114606;28;20115;-36
2022/09/24 09:28:21;;;;;;;12.27;8.05;;;;;;;26.46;19.23;100077.13;5114571;28;20012;-36
2022/09/24 09:31:05;;;;;;;2.78;2.45;;;;;;;26.68;19.82;100081.94;5114241;28;20102;-36
2022/09/24 09:33:49;;;;;;;3.80;2.20;;;;;;;25.68;20.42;100073.25;5113797;28;20035;-38
2022/09/24 09:36:15;;;;;;;2.00;1.80;;;;;;;26.05;20.74;100068.88;5094059;28;20023;-37
2022/09/24 09:38:43;;;;;;;2.25;2.00;;;;;;;26.28;21.03;100072.56;5093771;28;20375;-36
2022/09/24 09:41:19;;;;;;;2.17;1.80;;;;;;;26.55;20.50;100077.25;5093753;28;20024;-36
2022/09/24 09:43:45;;;;;;;2.95;2.60;;;;;;;27.26;20.06;100072.31;5093454;28;20355;-36
2022/09/24 09:46:21;;;;;;;2.50;2.30;;;;;;;27.72;19.47;100069.59;5093643;28;20200;-36
2022/09/24 09:48:54;;;;;;;6.35;2.15;;;;;;;27.17;19.55;100062.34;5091923;28;20024;-37
2022/09/24 09:51:24;;;;;;;3.60;1.90;;;;;;;26.72;19.79;100061.09;5093687;28;20047;-36
2022/09/24 09:54:00;;;;;;;2.90;2.03;;;;;;;26.86;20.30;100061.09;5092745;28;20027;-37
2022/09/24 09:56:40;;;;;;;3.00;1.73;;;;;;;26.94;20.21;100061.50;5093496;28;20433;-37
2022/09/24 09:59:17;;;;;;;2.33;1.85;;;;;;;27.30;18.68;100056.91;5093291;28;20432;-37
2022/09/24 10:01:46;;;;;;;2.17;1.80;;;;;;;26.98;18.82;100057.03;5093372;28;20092;-36
2022/09/24 10:04:39;;;;;;;2.40;1.80;;;;;;;26.24;19.16;100044.28;5092894;28;20081;-37
2022/09/24 10:07:15;;;;;;;7.63;6.53;;;;;;;27.12;19.46;100044.16;5089430;28;20457;-36
2022/09/24 10:09:43;;;;;;;6.63;5.30;;;;;;;27.98;19.18;100034.28;5093075;28;20016;-37
2022/09/24 10:12:16;;;;;;;3.03;1.80;;;;;;;27.36;18.37;100034.91;5093413;28;20031;-36
2022/09/24 10:14:42;;;;;;;3.22;1.90;;;;;;;25.91;20.04;100036.94;5093419;28;20024;-36
2022/09/24 10:17:14;;;;;;;1.83;1.67;;;;;;;25.68;19.76;100035.94;5093198;28;20445;-36
2022/09/24 10:19:44;;;;;;;1.98;1.75;;;;;;;26.31;19.24;100033.75;5093068;28;20130;-37
2022/09/24 10:22:29;;;;;;;4.35;1.90;;;;;;;26.98;19.37;100035.19;5092770;28;20031;-35
2022/09/24 10:24:58;;;;;;;2.40;1.60;;;;;;;25.80;19.39;100031.91;5092951;28;20076;-35
2022/09/24 10:27:32;;;;;;;1.70;1.60;;;;;;;25.84;19.82;100028.31;5101151;28;20034;-36
2022/09/24 10:30:43;;;;;;;3.45;1.90;;;;;;;25.35;20.25;100019.53;5112846;28;20036;-36
2022/09/24 10:32:47;;;;;;;2.50;2.17;;;;;;;25.70;20.10;100014.66;5105872;28;20046;-35
2022/09/24 10:35:39;;;;;;;3.17;1.75;;;;;;;25.89;19.40;100009.16;5113239;28;20069;-36
2022/09/24 10:38:19;;;;;;;1.70;1.50;;;;;;;25.91;19.59;100009.69;5108160;27;20042;-36
2022/09/24 10:40:46;;;;;;;3.42;1.80;;;;;;;25.59;20.77;100015.09;5092532;28;20031;-35
2022/09/24 10:43:21;;;;;;;1.90;1.75;;;;;;;26.85;19.75;100006.81;5092651;28;20414;-36
2022/09/24 10:45:55;;;;;;;3.58;1.80;;;;;;;27.56;18.70;100004.38;5092339;28;20016;-36
2022/09/24 10:48:34;;;;;;;2.13;1.50;;;;;;;28.00;18.90;100008.22;5092433;28;20050;-37
2022/09/24 10:51:13;;;;;;;7.47;4.15;;;;;;;28.08;17.96;100004.75;5092564;28;20067;-36
2022/09/24 10:53:48;;;;;;;5.10;2.78;;;;;;;26.92;19.13;100015.38;5092438;28;20047;-36
2022/09/24 10:56:17;;;;;;;3.50;2.55;;;;;;;27.40;19.48;100011.34;5092314;28;20032;-36
2022/09/24 10:58:55;;;;;;;4.43;3.50;;;;;;;28.26;18.12;100004.81;5092405;28;20483;-36
2022/09/24 11:01:27;;;;;;;37.75;26.45;;;;;;;29.15;17.63;100002.00;5091981;28;20020;-36
2022/09/24 11:04:01;;;;;;;3.58;2.70;;;;;;;29.29;16.88;99993.63;5090499;28;20032;-36
2022/09/24 11:06:45;;;;;;;4.22;2.50;;;;;;;29.05;17.53;99994.88;5092033;28;20028;-37
2022/09/24 11:09:29;;;;;;;2.50;2.05;;;;;;;28.39;17.49;99994.88;5090776;28;20446;-36
2022/09/24 11:12:04;;;;;;;3.00;2.00;;;;;;;28.43;17.46;99991.19;5092186;28;20035;-36
2022/09/24 11:14:35;;;;;;;2.50;2.20;;;;;;;29.25;17.22;99974.28;5091897;28;20135;-36
2022/09/24 11:17:15;;;;;;;14.45;12.65;;;;;;;29.53;16.80;99985.72;5092271;28;20028;-36
2022/09/24 11:19:43;;;;;;;;;;;;;;;29.66;16.63;99975.66;5092139;28;20056;-36
2022/09/24 11:22:16;;;;;;;3.58;1.80;;;;;;;29.63;16.83;99963.44;5091855;28;19944;-36
2022/09/24 11:25:23;;;;;;;2.33;1.65;;;;;;;28.86;16.91;99967.78;5091660;28;20349;-36
2022/09/24 11:27:48;;;;;;;2.20;2.00;;;;;;;28.88;17.25;99967.47;5049633;28;20117;-36
2022/09/24 11:30:20;;;;;;;2.00;1.80;;;;;;;29.15;16.71;99958.16;5082823;28;20127;-36
2022/09/24 11:33:15;;;;;;;2.75;1.70;;;;;;;29.03;17.05;99959.59;5091860;28;20085;-36
2022/09/24 11:35:59;;;;;;;1.70;1.60;;;;;;;29.08;16.76;99957.81;5076683;28;20058;-35
2022/09/24 11:38:46;;;;;;;2.95;2.65;;;;;;;29.47;17.24;99950.56;5095973;28;20051;-36
2022/09/24 11:41:29;;;;;;;3.25;2.20;;;;;;;30.38;16.05;99954.78;5112153;28;20058;-37
2022/09/24 11:44:32;;;;;;;1.88;1.70;;;;;;;30.29;16.02;99948.53;5112261;28;20475;-36
2022/09/24 11:47:10;;;;;;;1.65;1.55;;;;;;;28.88;18.31;99937.34;5111768;28;20530;-36
2022/09/24 11:49:35;;;;;;;1.83;1.67;;;;;;;29.31;17.29;99942.03;5112330;28;20443;-37